sensor_id;sensor_type;location;lat;lon;timestamp;P1;durP1;ratioP1;P2;durP2;ratioP2
46633;SDS011;32362;49.986;8.026;2023-04-24T00:10:59;2.80;;;0.98;;
46633;SDS011;32362;49.986;8.026;2023-04-24T00:37:54;1.33;;;0.90;;
46633;SDS011;32362;49.986;8.026;2023-04-24T01:04:35;1.17;;;0.82;;
46633;SDS011;32362;49.986;8.026;2023-04-24T01:31:31;1.02;;;0.70;;
46633;SDS011;32362;49.986;8.026;2023-04-24T01:58:13;0.80;;;0.65;;
46633;SDS011;32362;49.986;8.026;2023-04-24T02:24:54;1.95;;;0.82;;
46633;SDS011;32362;49.986;8.026;2023-04-24T02:51:35;5.88;;;1.10;;
46633;SDS011;32362;49.986;8.026;2023-04-24T03:18:20;35.25;;;2.88;;
46633;SDS011;32362;49.986;8.026;2023-04-24T03:45:06;1.73;;;0.60;;
46633;SDS011;32362;49.986;8.026;2023-04-24T04:11:50;1.55;;;0.63;;
46633;SDS011;32362;49.986;8.026;2023-04-24T04:38:35;4.82;;;0.90;;
46633;SDS011;32362;49.986;8.026;2023-04-24T05:05:28;10.05;;;1.60;;
46633;SDS011;32362;49.986;8.026;2023-04-24T05:32:10;7.22;;;2.17;;
46633;SDS011;32362;49.986;8.026;2023-04-24T05:58:50;6.13;;;1.85;;
46633;SDS011;32362;49.986;8.026;2023-04-24T06:25:35;3.78;;;1.70;;
46633;SDS011;32362;49.986;8.026;2023-04-24T06:52:31;4.65;;;1.58;;
46633;SDS011;32362;49.986;8.026;2023-04-24T07:19:13;5.05;;;2.05;;
46633;SDS011;32362;49.986;8.026;2023-04-24T07:45:54;1.92;;;1.38;;
46633;SDS011;32362;49.986;8.026;2023-04-24T08:12:34;4.25;;;1.20;;
46633;SDS011;32362;49.986;8.026;2023-04-24T08:39:15;4.30;;;1.40;;
46633;SDS011;32362;49.986;8.026;2023-04-24T09:05:57;1.98;;;1.20;;
46633;SDS011;32362;49.986;8.026;2023-04-24T09:32:38;1.85;;;1.27;;
46633;SDS011;32362;49.986;8.026;2023-04-24T09:59:21;2.75;;;1.17;;
46633;SDS011;32362;49.986;8.026;2023-04-24T10:44:16;2.95;;;0.55;;
46633;SDS011;32362;49.986;8.026;2023-04-24T11:37:40;1.48;;;1.00;;
46633;SDS011;32362;49.986;8.026;2023-04-24T12:04:37;2.80;;;1.40;;
46633;SDS011;32362;49.986;8.026;2023-04-24T12:31:21;2.58;;;1.50;;
46633;SDS011;32362;49.986;8.026;2023-04-24T12:58:03;2.40;;;1.50;;
46633;SDS011;32362;49.986;8.026;2023-04-24T13:25:00;3.47;;;1.98;;
46633;SDS011;32362;49.986;8.026;2023-04-24T13:51:41;3.58;;;1.90;;
46633;SDS011;32362;49.986;8.026;2023-04-24T14:18:22;2.67;;;1.48;;
46633;SDS011;32362;49.986;8.026;2023-04-24T14:45:06;7.47;;;1.60;;
46633;SDS011;32362;49.986;8.026;2023-04-24T15:11:50;5.63;;;2.10;;
46633;SDS011;32362;49.986;8.026;2023-04-24T15:38:31;2.95;;;2.10;;
46633;SDS011;32362;49.986;8.026;2023-04-24T16:05:12;2.35;;;1.15;;
46633;SDS011;32362;49.986;8.026;2023-04-24T16:31:53;2.05;;;1.08;;
46633;SDS011;32362;49.986;8.026;2023-04-24T16:58:49;2.42;;;1.58;;
46633;SDS011;32362;49.986;8.026;2023-04-24T17:25:46;3.75;;;2.50;;
46633;SDS011;32362;49.986;8.026;2023-04-24T17:52:41;4.43;;;3.13;;
46633;SDS011;32362;49.986;8.026;2023-04-24T18:19:23;3.50;;;2.47;;
46633;SDS011;32362;49.986;8.026;2023-04-24T18:46:03;1.67;;;1.20;;
46633;SDS011;32362;49.986;8.026;2023-04-24T19:12:44;4.65;;;2.67;;
46633;SDS011;32362;49.986;8.026;2023-04-24T19:39:25;3.13;;;2.15;;
46633;SDS011;32362;49.986;8.026;2023-04-24T20:06:06;5.47;;;3.40;;
46633;SDS011;32362;49.986;8.026;2023-04-24T20:33:01;3.88;;;2.60;;
46633;SDS011;32362;49.986;8.026;2023-04-24T20:59:57;6.43;;;3.75;;
46633;SDS011;32362;49.986;8.026;2023-04-24T21:26:53;6.00;;;3.40;;
46633;SDS011;32362;49.986;8.026;2023-04-24T21:53:34;6.88;;;3.13;;
46633;SDS011;32362;49.986;8.026;2023-04-24T22:20:14;1.52;;;1.30;;
46633;SDS011;32362;49.986;8.026;2023-04-24T22:46:58;3.75;;;1.70;;
46633;SDS011;32362;49.986;8.026;2023-04-24T23:13:42;6.63;;;3.05;;
46633;SDS011;32362;49.986;8.026;2023-04-24T23:40:23;12.45;;;4.43;;
